createdAt,value
2023-02-11T00:01:09.285Z,102083.78
2023-02-11T00:03:36.253Z,102080.28
2023-02-11T00:06:05.755Z,102077.72
2023-02-11T00:08:32.501Z,102076.00
2023-02-11T00:10:59.210Z,102072.53
2023-02-11T00:13:26.383Z,102069.94
2023-02-11T00:15:54.429Z,102073.41
2023-02-11T00:18:21.202Z,102072.53
2023-02-11T00:20:48.040Z,102068.09
2023-02-11T00:23:14.741Z,102066.38
2023-02-11T00:25:45.301Z,102068.16
2023-02-11T00:28:12.261Z,102057.72
2023-02-11T00:30:40.927Z,102054.31
2023-02-11T00:33:08.206Z,102053.44
2023-02-11T00:35:37.633Z,102048.25
2023-02-11T00:38:04.513Z,102055.16
2023-02-11T00:40:31.516Z,102048.22
2023-02-11T00:42:58.307Z,102040.41
2023-02-11T00:45:25.035Z,102030.84
2023-02-11T00:47:51.773Z,102030.00
2023-02-11T00:50:18.466Z,102036.91
2023-02-11T00:52:45.344Z,102054.28
2023-02-11T00:55:12.062Z,102049.06
2023-02-11T00:57:38.944Z,102048.22
2023-02-11T01:00:06.801Z,102063.84
2023-02-11T01:02:33.578Z,102061.16
2023-02-11T01:05:00.906Z,102055.97
2023-02-11T01:07:28.596Z,102056.00
2023-02-11T01:09:55.498Z,102050.81
2023-02-11T01:12:22.769Z,102046.47
2023-02-11T01:14:49.608Z,102042.91
2023-02-11T01:17:18.462Z,102044.63
2023-02-11T01:19:45.169Z,102044.63
2023-02-11T01:22:11.934Z,102052.44
2023-02-11T01:24:38.693Z,102039.41
2023-02-11T01:27:07.441Z,102048.09
2023-02-11T01:29:34.326Z,102056.75
2023-02-11T01:32:01.268Z,102049.91
2023-02-11T01:34:28.267Z,102053.31
2023-02-11T01:37:00.923Z,102050.75
2023-02-11T01:39:29.093Z,102048.09
2023-02-11T01:41:55.827Z,102047.25
2023-02-11T01:44:26.209Z,102042.84
2023-02-11T01:46:53.711Z,102021.13
2023-02-11T01:49:28.015Z,102022.88
2023-02-11T01:52:01.629Z,102023.75
2023-02-11T01:54:49.766Z,102021.13
2023-02-11T01:57:25.289Z,102013.28
2023-02-11T02:00:12.209Z,102002.00
2023-02-11T02:02:56.567Z,102002.78
2023-02-11T02:06:04.283Z,102000.25
2023-02-11T02:08:55.076Z,101992.38
2023-02-11T02:11:21.766Z,101994.06
2023-02-11T02:13:49.220Z,101995.00
2023-02-11T02:16:18.756Z,101983.66
2023-02-11T02:18:56.638Z,101981.03
2023-02-11T02:21:52.634Z,101977.50
2023-02-11T02:25:00.974Z,101974.03
2023-02-11T02:27:38.283Z,101974.88
2023-02-11T02:30:17.156Z,101958.31
2023-02-11T02:32:49.100Z,101953.09
2023-02-11T02:35:25.718Z,101948.69
2023-02-11T02:38:08.761Z,101944.41
2023-02-11T02:40:45.802Z,101948.72
2023-02-11T02:43:13.988Z,101942.59
2023-02-11T02:45:40.831Z,101934.78
2023-02-11T02:48:07.576Z,101927.84
2023-02-11T02:50:36.611Z,101923.47
2023-02-11T02:53:12.053Z,101920.91
2023-02-11T02:55:38.781Z,101928.66
2023-02-11T02:58:15.810Z,101937.34
2023-02-11T03:00:55.892Z,101949.53
2023-02-11T03:03:49.339Z,101956.56
2023-02-11T03:06:46.916Z,101950.44
2023-02-11T03:09:22.344Z,101955.66
2023-02-11T03:11:49.182Z,101964.44
2023-02-11T03:14:18.625Z,101971.38
2023-02-11T03:16:46.583Z,101961.75
2023-02-11T03:19:17.972Z,101959.19
2023-02-11T03:21:45.236Z,101947.88
2023-02-11T03:24:20.445Z,101939.22
2023-02-11T03:26:50.686Z,101931.34
2023-02-11T03:29:39.436Z,101925.19
2023-02-11T03:32:15.963Z,101931.16
2023-02-11T03:35:15.785Z,101937.31
2023-02-11T03:37:51.349Z,101932.03
2023-02-11T03:40:29.922Z,101931.16
2023-02-11T03:43:03.545Z,101931.19
2023-02-11T03:45:30.656Z,101930.28
2023-02-11T03:48:03.358Z,101926.00
2023-02-11T03:50:32.443Z,101920.72
2023-02-11T03:53:01.329Z,101927.66
2023-02-11T03:55:28.969Z,101930.25
2023-02-11T03:57:56.183Z,101927.72
2023-02-11T04:00:33.834Z,101917.31
2023-02-11T04:03:00.702Z,101929.44
2023-02-11T04:05:27.387Z,101925.13
2023-02-11T04:07:54.064Z,101925.13
2023-02-11T04:10:20.866Z,101926.78
2023-02-11T04:12:47.716Z,101931.09
2023-02-11T04:15:14.689Z,101925.03
2023-02-11T04:17:41.558Z,101919.78
2023-02-11T04:20:09.219Z,101931.94
2023-02-11T04:22:36.280Z,101930.25
2023-02-11T04:25:04.295Z,101922.44
2023-02-11T04:27:31.038Z,101937.19
2023-02-11T04:29:57.777Z,101933.72
2023-02-11T04:32:24.492Z,101925.03
2023-02-11T04:34:51.869Z,101915.34
2023-02-11T04:37:18.525Z,101903.16
2023-02-11T04:39:45.247Z,101891.78
2023-02-11T04:42:12.200Z,101888.25
2023-02-11T04:44:38.982Z,101876.91
2023-02-11T04:47:05.633Z,101872.59
2023-02-11T04:49:32.308Z,101874.38
2023-02-11T04:51:59.004Z,101877.00
2023-02-11T04:54:25.706Z,101877.00
2023-02-11T04:56:52.524Z,101879.63
2023-02-11T04:59:19.386Z,101883.13
2023-02-11T05:01:46.164Z,101881.31
2023-02-11T05:04:13.025Z,101879.56
2023-02-11T05:06:39.894Z,101903.13
2023-02-11T05:09:06.619Z,101899.59
2023-02-11T05:11:33.477Z,101906.50
2023-02-11T05:14:00.386Z,101911.78
2023-02-11T05:16:28.156Z,101918.69
2023-02-11T05:18:55.774Z,101915.19
2023-02-11T05:21:22.853Z,101918.75
2023-02-11T05:23:49.554Z,101925.72
2023-02-11T05:26:16.659Z,101930.00
2023-02-11T05:28:44.328Z,101917.03
2023-02-11T05:31:11.888Z,101928.28
2023-02-11T05:33:38.644Z,101916.13
2023-02-11T05:36:11.187Z,101915.28
2023-02-11T05:38:38.485Z,101900.41
2023-02-11T05:41:06.059Z,101893.34
2023-02-11T05:43:34.756Z,101875.88
2023-02-11T05:46:01.640Z,101881.94
2023-02-11T05:48:28.379Z,101881.13
2023-02-11T05:50:55.128Z,101874.25
2023-02-11T05:53:21.942Z,101876.91
2023-02-11T05:55:48.959Z,101885.59
2023-02-11T05:58:15.898Z,101884.75
2023-02-11T06:00:42.675Z,101892.59
2023-02-11T06:03:09.431Z,101893.44
2023-02-11T06:05:36.136Z,101895.19
2023-02-11T06:08:02.860Z,101898.63
2023-02-11T06:10:29.617Z,101886.47
2023-02-11T06:12:56.313Z,101890.78
2023-02-11T06:15:23.064Z,101892.59
2023-02-11T06:17:49.741Z,101885.69
2023-02-11T06:20:16.613Z,101881.38
2023-02-11T06:22:43.260Z,101884.84
2023-02-11T06:25:11.159Z,101891.81
2023-02-11T06:27:38.338Z,101879.63
2023-02-11T06:30:07.043Z,101874.41
2023-02-11T06:32:49.600Z,101888.25
2023-02-11T06:35:16.440Z,101885.69
2023-02-11T06:37:43.433Z,101884.75
2023-02-11T06:40:11.463Z,101884.78
2023-02-11T06:42:39.218Z,101889.97
2023-02-11T06:45:08.975Z,101877.72
2023-02-11T06:47:35.675Z,101884.75
2023-02-11T06:50:02.367Z,101887.38
2023-02-11T06:52:29.122Z,101892.63
2023-02-11T06:54:55.806Z,101902.22
2023-02-11T06:57:22.794Z,101909.09
2023-02-11T06:59:49.538Z,101902.13
2023-02-11T07:02:18.469Z,101901.22
2023-02-11T07:04:46.393Z,101892.56
2023-02-11T07:07:13.152Z,101900.38
2023-02-11T07:09:39.844Z,101898.66
2023-02-11T07:12:06.719Z,101901.22
2023-02-11T07:14:33.456Z,101893.38
2023-02-11T07:17:00.239Z,101901.19
2023-02-11T07:19:26.995Z,101882.03
2023-02-11T07:21:54.209Z,101887.22
2023-02-11T07:24:20.955Z,101882.00
2023-02-11T07:26:47.635Z,101894.16
2023-02-11T07:29:14.388Z,101889.78
2023-02-11T07:31:41.118Z,101876.66
2023-02-11T07:34:07.869Z,101883.59
2023-02-11T07:36:34.613Z,101891.44
2023-02-11T07:39:03.990Z,101901.88
2023-02-11T07:41:30.849Z,101896.66
2023-02-11T07:43:57.611Z,101895.75
2023-02-11T07:46:26.447Z,101893.16
2023-02-11T07:48:53.550Z,101890.50
2023-02-11T07:51:25.661Z,101893.06
2023-02-11T07:53:53.327Z,101884.28
2023-02-11T07:56:20.723Z,101890.34
2023-02-11T07:58:47.853Z,101888.56
2023-02-11T08:01:22.685Z,101885.03
2023-02-11T08:03:49.600Z,101876.31
2023-02-11T08:06:18.814Z,101877.19
2023-02-11T08:08:45.664Z,101885.84
2023-02-11T08:11:15.235Z,101888.41
2023-02-11T08:13:42.643Z,101885.78
2023-02-11T08:16:10.555Z,101883.16
2023-02-11T08:18:37.251Z,101880.56
2023-02-11T08:21:05.926Z,101875.34
2023-02-11T08:23:32.797Z,101877.03
2023-02-11T08:26:03.788Z,101889.16
2023-02-11T08:28:30.616Z,101887.34
2023-02-11T08:30:57.410Z,101887.28
2023-02-11T08:33:24.166Z,101880.28
2023-02-11T08:35:50.893Z,101879.31
2023-02-11T08:38:17.491Z,101879.28
2023-02-11T08:40:44.187Z,101886.22
2023-02-11T08:43:10.829Z,101894.88
2023-02-11T08:45:37.544Z,101907.94
2023-02-11T08:48:04.425Z,101905.28
2023-02-11T08:50:32.239Z,101898.28
2023-02-11T08:52:58.893Z,101896.47
2023-02-11T08:55:25.802Z,101893.84
2023-02-11T08:57:52.423Z,101888.53
2023-02-11T09:00:19.461Z,101898.97
2023-02-11T09:02:46.244Z,101898.97
2023-02-11T09:05:12.910Z,101898.03
2023-02-11T09:07:39.608Z,101884.03
2023-02-11T09:10:06.629Z,101884.81
2023-02-11T09:12:33.419Z,101886.53
2023-02-11T09:15:00.118Z,101883.84
2023-02-11T09:17:26.817Z,101875.03
2023-02-11T09:19:53.483Z,101877.56
2023-02-11T09:22:20.121Z,101881.88
2023-02-11T09:24:46.748Z,101886.25
2023-02-11T09:27:13.434Z,101891.44
2023-02-11T09:29:40.112Z,101906.22
2023-02-11T09:32:09.755Z,101900.91
2023-02-11T09:34:36.802Z,101908.66
2023-02-11T09:37:03.529Z,101903.38
2023-02-11T09:39:30.258Z,101907.59
2023-02-11T09:42:30.346Z,101900.56
2023-02-11T09:44:57.833Z,101902.19
2023-02-11T09:47:32.309Z,101896.88
2023-02-11T09:50:02.702Z,101899.38
2023-02-11T09:52:38.391Z,101910.59
2023-02-11T09:55:14.819Z,101903.50
2023-02-11T09:57:41.475Z,101899.06
2023-02-11T10:00:43.760Z,101895.47
2023-02-11T10:03:48.097Z,101890.94
2023-02-11T10:06:21.043Z,101892.47
2023-02-11T10:08:53.646Z,101890.66
2023-02-11T10:11:31.231Z,101884.38
2023-02-11T10:14:13.000Z,101891.28
2023-02-11T10:17:05.349Z,101885.03
2023-02-11T10:19:59.398Z,101883.03
2023-02-11T10:22:31.332Z,101884.63
2023-02-11T10:25:00.271Z,101879.25
2023-02-11T10:27:31.878Z,101875.63
2023-02-11T10:30:08.094Z,101869.38
2023-02-11T10:33:19.304Z,101872.72
2023-02-11T10:35:46.252Z,101880.44
2023-02-11T10:38:13.124Z,101875.19
2023-02-11T10:40:40.736Z,101870.78
2023-02-11T10:43:13.956Z,101870.75
2023-02-11T10:45:44.701Z,101872.75
2023-02-11T10:48:44.112Z,101873.50
2023-02-11T10:51:13.418Z,101870.78
2023-02-11T10:53:41.076Z,101879.59
2023-02-11T10:56:11.899Z,101875.25
2023-02-11T10:58:44.973Z,101882.97
2023-02-11T11:01:23.927Z,101867.94
2023-02-11T11:03:52.651Z,101865.16
2023-02-11T11:06:32.605Z,101859.81
2023-02-11T11:08:59.466Z,101852.66
2023-02-11T11:11:27.085Z,101859.41
2023-02-11T11:13:56.376Z,101859.50
2023-02-11T11:16:28.881Z,101855.97
2023-02-11T11:19:07.745Z,101861.31
2023-02-11T11:21:44.470Z,101852.56
2023-02-11T11:24:22.164Z,101852.56
2023-02-11T11:26:54.495Z,101859.50
2023-02-11T11:29:48.335Z,101868.25
2023-02-11T11:32:17.793Z,101868.34
2023-02-11T11:34:51.140Z,101876.03
2023-02-11T11:37:24.340Z,101875.94
2023-02-11T11:40:01.734Z,101869.91
2023-02-11T11:42:31.292Z,101862.75
2023-02-11T11:45:25.722Z,101863.69
2023-02-11T11:48:31.840Z,101861.00
2023-02-11T11:51:01.701Z,101860.91
2023-02-11T11:53:30.990Z,101865.28
2023-02-11T11:56:33.908Z,101862.69
2023-02-11T11:59:03.680Z,101860.69
2023-02-11T12:01:48.889Z,101858.59
2023-02-11T12:04:24.525Z,101856.75
2023-02-11T12:07:14.619Z,101864.38
2023-02-11T12:09:58.867Z,101862.47
2023-02-11T12:12:49.250Z,101855.44
2023-02-11T12:15:29.585Z,101847.31
2023-02-11T12:18:14.819Z,101837.63
2023-02-11T12:20:54.908Z,101839.25
2023-02-11T12:23:37.571Z,101833.94
2023-02-11T12:26:19.562Z,101834.78
2023-02-11T12:29:01.094Z,101831.84
2023-02-11T12:31:53.067Z,101836.25
2023-02-11T12:34:38.027Z,101829.09
2023-02-11T12:37:42.727Z,101830.78
2023-02-11T12:40:21.748Z,101821.00
2023-02-11T12:43:17.197Z,101814.66
2023-02-11T12:46:05.504Z,101820.72
2023-02-11T12:49:11.872Z,101817.13
2023-02-11T12:51:50.309Z,101815.84
2023-02-11T12:54:19.681Z,101814.16
2023-02-11T12:56:55.878Z,101811.66
2023-02-11T12:59:28.475Z,101808.91
2023-02-11T13:01:55.842Z,101803.66
2023-02-11T13:04:25.529Z,101806.28
2023-02-11T13:06:57.195Z,101804.50
2023-02-11T13:09:27.131Z,101798.34
2023-02-11T13:11:58.252Z,101798.28
2023-02-11T13:14:32.685Z,101799.06
2023-02-11T13:16:59.672Z,101786.72
2023-02-11T13:19:34.824Z,101785.84
2023-02-11T13:22:20.170Z,101780.53
2023-02-11T13:24:58.184Z,101774.31
2023-02-11T13:27:42.666Z,101768.25
2023-02-11T13:30:26.832Z,101780.44
2023-02-11T13:32:56.575Z,101786.41
2023-02-11T13:35:33.458Z,101782.06
2023-02-11T13:38:05.380Z,101787.13
2023-02-11T13:40:35.519Z,101790.59
2023-02-11T13:43:04.317Z,101796.78
2023-02-11T13:45:36.403Z,101805.63
2023-02-11T13:48:06.276Z,101790.72
2023-02-11T13:50:38.132Z,101789.00
2023-02-11T13:53:07.134Z,101795.03
2023-02-11T13:55:34.856Z,101790.59
2023-02-11T13:58:07.634Z,101793.06
2023-02-11T14:00:34.251Z,101792.13
2023-02-11T14:03:46.884Z,101789.63
2023-02-11T14:06:51.614Z,101788.69
2023-02-11T14:09:18.259Z,101792.81
2023-02-11T14:11:51.542Z,101790.44
2023-02-11T14:14:36.017Z,101794.06
2023-02-11T14:17:09.108Z,101789.66
2023-02-11T14:19:37.998Z,101786.97
2023-02-11T14:22:06.312Z,101793.22
2023-02-11T14:24:32.905Z,101790.56
2023-02-11T14:27:07.131Z,101796.69
2023-02-11T14:29:50.962Z,101799.38
2023-02-11T14:32:38.008Z,101801.94
2023-02-11T14:35:32.692Z,101794.13
2023-02-11T14:38:35.064Z,101803.72
2023-02-11T14:41:07.478Z,101805.44
2023-02-11T14:43:43.399Z,101805.50
2023-02-11T14:46:10.145Z,101805.38
2023-02-11T14:48:38.104Z,101808.97
2023-02-11T14:51:07.633Z,101816.84
2023-02-11T14:53:34.736Z,101820.34
2023-02-11T14:56:01.423Z,101826.25
2023-02-11T14:58:30.581Z,101828.97
2023-02-11T15:00:58.408Z,101829.06
2023-02-11T15:03:30.104Z,101833.38
2023-02-11T15:06:21.345Z,101836.97
2023-02-11T15:08:53.648Z,101840.44
2023-02-11T15:11:22.584Z,101839.56
2023-02-11T15:13:50.279Z,101838.66
2023-02-11T15:16:20.813Z,101834.31
2023-02-11T15:18:51.765Z,101834.31
2023-02-11T15:21:27.193Z,101839.63
2023-02-11T15:24:06.314Z,101851.91
2023-02-11T15:26:33.466Z,101849.03
2023-02-11T15:29:00.254Z,101839.41
2023-02-11T15:31:28.514Z,101836.84
2023-02-11T15:33:55.332Z,101843.00
2023-02-11T15:36:28.451Z,101843.00
2023-02-11T15:39:13.886Z,101854.72
2023-02-11T15:41:40.558Z,101850.97
2023-02-11T15:44:26.873Z,101844.91
2023-02-11T15:46:53.607Z,101849.22
2023-02-11T15:49:21.374Z,101854.44
2023-02-11T15:51:48.116Z,101847.47
2023-02-11T15:54:20.697Z,101843.09
2023-02-11T15:56:59.716Z,101843.16
2023-02-11T15:59:32.291Z,101843.06
2023-02-11T16:02:06.943Z,101848.44
2023-02-11T16:04:33.840Z,101838.75
2023-02-11T16:07:00.639Z,101841.38
2023-02-11T16:09:31.824Z,101840.56
2023-02-11T16:12:00.772Z,101857.19
2023-02-11T16:14:27.375Z,101858.03
2023-02-11T16:17:00.789Z,101850.19
2023-02-11T16:19:28.558Z,101846.75
2023-02-11T16:21:56.902Z,101853.75
2023-02-11T16:24:34.444Z,101855.66
2023-02-11T16:27:06.983Z,101859.09
2023-02-11T16:29:36.421Z,101867.03
2023-02-11T16:32:20.792Z,101854.78
2023-02-11T16:34:47.676Z,101860.88
2023-02-11T16:37:16.609Z,101850.41
2023-02-11T16:39:43.314Z,101852.97
2023-02-11T16:42:13.274Z,101862.63
2023-02-11T16:44:40.011Z,101844.19
2023-02-11T16:47:08.150Z,101851.25
2023-02-11T16:49:37.315Z,101852.97
2023-02-11T16:52:08.069Z,101844.25
2023-02-11T16:54:35.056Z,101845.09
2023-02-11T16:57:05.392Z,101848.59
2023-02-11T16:59:32.225Z,101854.78
2023-02-11T17:01:59.270Z,101847.72
2023-02-11T17:04:29.467Z,101854.72
2023-02-11T17:06:58.538Z,101863.50
2023-02-11T17:09:30.289Z,101869.66
2023-02-11T17:11:57.602Z,101875.75
2023-02-11T17:14:24.718Z,101870.50
2023-02-11T17:16:51.792Z,101873.13
2023-02-11T17:19:21.143Z,101876.69
2023-02-11T17:21:50.675Z,101895.94
2023-02-11T17:24:18.443Z,101895.00
2023-02-11T17:26:45.780Z,101888.88
2023-02-11T17:29:17.792Z,101889.75
2023-02-11T17:31:44.893Z,101899.31
2023-02-11T17:34:11.951Z,101904.59
2023-02-11T17:36:41.297Z,101899.38
2023-02-11T17:39:08.513Z,101908.13
2023-02-11T17:41:37.008Z,101902.88
2023-02-11T17:44:04.757Z,101900.28
2023-02-11T17:46:32.421Z,101897.72
2023-02-11T17:48:59.682Z,101895.97
2023-02-11T17:51:29.202Z,101903.75
2023-02-11T17:53:58.239Z,101911.72
2023-02-11T17:56:25.047Z,101904.72
2023-02-11T17:58:53.109Z,101900.25
2023-02-11T18:01:20.353Z,101905.59
2023-02-11T18:03:47.357Z,101908.16
2023-02-11T18:06:14.122Z,101904.69
2023-02-11T18:08:43.078Z,101905.53
2023-02-11T18:11:11.770Z,101911.66
2023-02-11T18:13:39.041Z,101912.53
2023-02-11T18:16:06.266Z,101920.47
2023-02-11T18:18:33.073Z,101923.13
2023-02-11T18:21:02.972Z,101921.44
2023-02-11T18:23:29.809Z,101920.56
2023-02-11T18:25:56.803Z,101923.13
2023-02-11T18:28:23.776Z,101920.47
2023-02-11T18:30:57.612Z,101916.94
2023-02-11T18:33:24.637Z,101922.97
2023-02-11T18:35:51.667Z,101929.09
2023-02-11T18:38:22.748Z,101924.75
2023-02-11T18:40:52.908Z,101936.94
2023-02-11T18:43:20.135Z,101929.94
2023-02-11T18:45:47.704Z,101928.16
2023-02-11T18:48:14.768Z,101938.69
2023-02-11T18:50:45.816Z,101929.00
2023-02-11T18:53:13.979Z,101938.66
2023-02-11T18:55:42.491Z,101935.09
2023-02-11T18:58:09.850Z,101931.59
2023-02-11T19:00:39.361Z,101934.16
2023-02-11T19:03:06.089Z,101928.88
2023-02-11T19:05:35.597Z,101922.78
2023-02-11T19:08:02.379Z,101921.00
2023-02-11T19:10:30.700Z,101919.25
2023-02-11T19:12:58.946Z,101934.13
2023-02-11T19:15:26.253Z,101928.88
2023-02-11T19:17:53.160Z,101928.09
2023-02-11T19:20:20.119Z,101928.03
2023-02-11T19:22:46.943Z,101923.63
2023-02-11T19:25:13.925Z,101915.84
2023-02-11T19:27:43.513Z,101916.66
2023-02-11T19:30:11.086Z,101928.00
2023-02-11T19:32:37.775Z,101925.38
2023-02-11T19:35:04.662Z,101930.63
2023-02-11T19:37:31.479Z,101939.38
2023-02-11T19:39:58.386Z,101935.91
2023-02-11T19:42:27.575Z,101938.53
2023-02-11T19:44:54.600Z,101934.16
2023-02-11T19:47:27.687Z,101937.69
2023-02-11T19:49:54.629Z,101940.56
2023-02-11T19:52:21.435Z,101943.06
2023-02-11T19:54:48.259Z,101955.31
2023-02-11T19:57:15.072Z,101953.50
2023-02-11T19:59:41.900Z,101949.06
2023-02-11T20:02:11.219Z,101949.09
2023-02-11T20:04:37.991Z,101939.38
2023-02-11T20:07:04.968Z,101938.47
2023-02-11T20:09:31.822Z,101937.59
2023-02-11T20:11:59.113Z,101930.53
2023-02-11T20:14:27.915Z,101934.88
2023-02-11T20:16:54.903Z,101943.66
2023-02-11T20:19:22.164Z,101939.25
2023-02-11T20:21:51.411Z,101945.34
2023-02-11T20:24:18.684Z,101940.09
2023-02-11T20:26:48.050Z,101938.31
2023-02-11T20:29:16.367Z,101948.84
2023-02-11T20:31:43.412Z,101956.81
2023-02-11T20:34:10.445Z,101962.94
2023-02-11T20:36:38.699Z,101962.97
2023-02-11T20:39:06.132Z,101971.78
2023-02-11T20:41:34.841Z,101961.19
2023-02-11T20:44:06.980Z,101964.75
2023-02-11T20:46:34.377Z,101966.44
2023-02-11T20:49:01.779Z,101955.91
2023-02-11T20:51:30.650Z,101949.78
2023-02-11T20:53:57.547Z,101948.91
2023-02-11T20:56:26.787Z,101954.13
2023-02-11T20:58:53.517Z,101960.25
2023-02-11T21:01:23.322Z,101964.63
2023-02-11T21:03:54.599Z,101960.22
2023-02-11T21:06:23.593Z,101957.56
2023-02-11T21:08:50.425Z,101950.59
2023-02-11T21:11:17.477Z,101956.72
2023-02-11T21:13:44.694Z,101961.91
2023-02-11T21:16:15.872Z,101952.31
2023-02-11T21:18:42.728Z,101943.50
2023-02-11T21:21:09.642Z,101936.47
2023-02-11T21:23:36.381Z,101946.09
2023-02-11T21:26:03.179Z,101961.88
2023-02-11T21:28:30.066Z,101972.41
2023-02-11T21:30:57.395Z,101966.28
2023-02-11T21:33:26.160Z,101963.66
2023-02-11T21:36:03.675Z,101963.78
2023-02-11T21:38:30.984Z,101962.84
2023-02-11T21:41:05.497Z,101972.50
2023-02-11T21:43:32.429Z,101981.25
2023-02-11T21:45:59.715Z,101986.53
2023-02-11T21:48:27.018Z,101980.34
2023-02-11T21:50:54.015Z,101971.66
2023-02-11T21:53:20.773Z,101986.53
2023-02-11T21:55:47.572Z,101995.34
2023-02-11T21:58:14.601Z,101990.03
2023-02-11T22:00:41.464Z,101988.22
2023-02-11T22:03:08.278Z,101986.50
2023-02-11T22:05:35.058Z,101986.44
2023-02-11T22:08:01.756Z,101982.94
2023-02-11T22:10:28.536Z,101975.03
2023-02-11T22:12:55.324Z,101980.22
2023-02-11T22:15:22.007Z,101982.84
2023-02-11T22:17:48.695Z,101983.69
2023-02-11T22:20:16.864Z,101974.91
2023-02-11T22:22:43.577Z,101967.91
2023-02-11T22:25:10.386Z,101971.44
2023-02-11T22:27:37.126Z,101970.53
2023-02-11T22:30:04.652Z,101969.75
2023-02-11T22:32:31.331Z,101975.81
2023-02-11T22:34:58.029Z,101962.81
2023-02-11T22:37:24.783Z,101963.69
2023-02-11T22:39:51.516Z,101969.03
2023-02-11T22:42:18.215Z,101973.47
2023-02-11T22:44:44.996Z,101977.94
2023-02-11T22:47:11.753Z,101979.81
2023-02-11T22:49:40.221Z,101974.56
2023-02-11T22:52:06.928Z,101977.28
2023-02-11T22:54:33.660Z,101974.69
2023-02-11T22:57:00.373Z,101975.59
2023-02-11T22:59:27.130Z,101969.38
2023-02-11T23:01:53.918Z,101975.47
2023-02-11T23:04:20.928Z,101988.56
2023-02-11T23:06:47.747Z,101987.75
2023-02-11T23:09:14.512Z,102002.69
2023-02-11T23:11:41.624Z,102001.84
2023-02-11T23:14:10.052Z,101985.22
2023-02-11T23:16:36.880Z,102000.06
2023-02-11T23:19:07.097Z,102000.13
2023-02-11T23:21:36.965Z,102014.16
2023-02-11T23:24:09.969Z,102014.22
2023-02-11T23:26:40.763Z,102008.06
2023-02-11T23:29:07.801Z,102016.91
2023-02-11T23:31:40.376Z,102009.84
2023-02-11T23:34:08.061Z,102011.59
2023-02-11T23:36:34.800Z,102009.72
2023-02-11T23:39:01.600Z,102022.13
2023-02-11T23:41:28.418Z,102019.50
2023-02-11T23:43:57.098Z,102023.06
2023-02-11T23:46:25.509Z,102013.50
2023-02-11T23:48:53.036Z,102016.06
2023-02-11T23:51:20.037Z,102023.06
2023-02-11T23:53:49.096Z,102026.66
2023-02-11T23:56:21.364Z,102025.78
2023-02-11T23:58:49.417Z,102023.88
